sensor_id;sensor_type;location;lat;lon;timestamp;pressure;altitude;pressure_sealevel;temperature;humidity
74627;BME280;63132;52.268;5.192;2023-05-21T00:02:07;101925.88;;;14.04;65.11
74627;BME280;63132;52.268;5.192;2023-05-21T00:04:38;101932.59;;;14.09;65.03
74627;BME280;63132;52.268;5.192;2023-05-21T00:07:05;101930.50;;;14.02;65.41
74627;BME280;63132;52.268;5.192;2023-05-21T00:09:30;101924.94;;;14.05;65.29
74627;BME280;63132;52.268;5.192;2023-05-21T00:11:56;101925.06;;;14.03;65.36
74627;BME280;63132;52.268;5.192;2023-05-21T00:14:21;101924.41;;;14.00;65.75
74627;BME280;63132;52.268;5.192;2023-05-21T00:16:46;101920.53;;;14.04;65.41
74627;BME280;63132;52.268;5.192;2023-05-21T00:19:11;101919.91;;;14.00;65.67
74627;BME280;63132;52.268;5.192;2023-05-21T00:21:37;101916.03;;;14.04;65.77
74627;BME280;63132;52.268;5.192;2023-05-21T00:24:04;101915.19;;;14.04;65.68
74627;BME280;63132;52.268;5.192;2023-05-21T00:26:29;101912.91;;;14.11;65.47
74627;BME280;63132;52.268;5.192;2023-05-21T00:28:55;101912.63;;;14.02;65.89
74627;BME280;63132;52.268;5.192;2023-05-21T00:31:20;101910.94;;;14.01;66.05
74627;BME280;63132;52.268;5.192;2023-05-21T00:33:45;101915.69;;;13.98;66.31
74627;BME280;63132;52.268;5.192;2023-05-21T00:36:11;101913.94;;;13.96;66.52
74627;BME280;63132;52.268;5.192;2023-05-21T00:38:39;101909.69;;;13.94;66.66
74627;BME280;63132;52.268;5.192;2023-05-21T00:41:08;101904.31;;;13.94;66.73
74627;BME280;63132;52.268;5.192;2023-05-21T00:43:33;101922.34;;;13.92;66.71
74627;BME280;63132;52.268;5.192;2023-05-21T00:45:58;101909.81;;;13.92;66.65
74627;BME280;63132;52.268;5.192;2023-05-21T00:48:24;101900.56;;;13.96;66.53
74627;BME280;63132;52.268;5.192;2023-05-21T00:50:50;101901.78;;;13.92;66.96
74627;BME280;63132;52.268;5.192;2023-05-21T00:53:16;101899.47;;;13.88;66.95
74627;BME280;63132;52.268;5.192;2023-05-21T00:55:44;101893.25;;;13.87;67.05
74627;BME280;63132;52.268;5.192;2023-05-21T00:58:10;101889.59;;;13.88;67.27
74627;BME280;63132;52.268;5.192;2023-05-21T01:00:35;101891.56;;;13.86;67.24
74627;BME280;63132;52.268;5.192;2023-05-21T01:03:07;101889.72;;;13.87;67.19
74627;BME280;63132;52.268;5.192;2023-05-21T01:05:33;101887.06;;;13.87;67.16
74627;BME280;63132;52.268;5.192;2023-05-21T01:07:58;101887.31;;;13.83;67.36
74627;BME280;63132;52.268;5.192;2023-05-21T01:10:24;101886.44;;;13.83;67.35
74627;BME280;63132;52.268;5.192;2023-05-21T01:12:50;101883.88;;;13.81;67.70
74627;BME280;63132;52.268;5.192;2023-05-21T01:15:17;101878.78;;;13.78;67.80
74627;BME280;63132;52.268;5.192;2023-05-21T01:17:42;101886.31;;;13.84;67.58
74627;BME280;63132;52.268;5.192;2023-05-21T01:20:10;101877.06;;;13.77;67.88
74627;BME280;63132;52.268;5.192;2023-05-21T01:22:37;101874.63;;;13.74;67.92
74627;BME280;63132;52.268;5.192;2023-05-21T01:25:06;101876.84;;;13.80;67.75
74627;BME280;63132;52.268;5.192;2023-05-21T01:27:31;101869.78;;;13.79;67.92
74627;BME280;63132;52.268;5.192;2023-05-21T01:29:57;101863.56;;;13.79;67.70
74627;BME280;63132;52.268;5.192;2023-05-21T01:35:04;101866.63;;;13.74;67.61
74627;BME280;63132;52.268;5.192;2023-05-21T01:37:35;101866.38;;;13.77;67.61
74627;BME280;63132;52.268;5.192;2023-05-21T01:40:09;101870.63;;;13.80;67.51
74627;BME280;63132;52.268;5.192;2023-05-21T01:42:35;101867.34;;;13.76;67.76
74627;BME280;63132;52.268;5.192;2023-05-21T01:45:02;101869.66;;;13.81;67.54
74627;BME280;63132;52.268;5.192;2023-05-21T01:47:30;101876.31;;;13.75;67.77
74627;BME280;63132;52.268;5.192;2023-05-21T01:49:58;101876.59;;;13.83;68.06
74627;BME280;63132;52.268;5.192;2023-05-21T01:52:23;101872.81;;;13.75;68.17
74627;BME280;63132;52.268;5.192;2023-05-21T01:54:49;101875.59;;;13.73;68.17
74627;BME280;63132;52.268;5.192;2023-05-21T01:57:16;101872.09;;;13.72;68.16
74627;BME280;63132;52.268;5.192;2023-05-21T01:59:42;101866.38;;;13.77;68.11
74627;BME280;63132;52.268;5.192;2023-05-21T02:02:08;101868.09;;;13.78;67.89
74627;BME280;63132;52.268;5.192;2023-05-21T02:04:33;101872.81;;;13.75;68.14
74627;BME280;63132;52.268;5.192;2023-05-21T02:06:58;101866.25;;;13.79;68.02
74627;BME280;63132;52.268;5.192;2023-05-21T02:09:24;101863.53;;;13.67;68.30
74627;BME280;63132;52.268;5.192;2023-05-21T02:11:49;101876.09;;;13.67;68.32
74627;BME280;63132;52.268;5.192;2023-05-21T02:14:15;101876.91;;;13.67;68.63
74627;BME280;63132;52.268;5.192;2023-05-21T02:16:40;101865.13;;;13.70;68.51
74627;BME280;63132;52.268;5.192;2023-05-21T02:19:06;101877.16;;;13.64;68.43
74627;BME280;63132;52.268;5.192;2023-05-21T02:21:34;101874.59;;;13.63;68.91
74627;BME280;63132;52.268;5.192;2023-05-21T02:23:59;101874.84;;;13.71;68.42
74627;BME280;63132;52.268;5.192;2023-05-21T02:26:25;101863.44;;;13.69;68.70
74627;BME280;63132;52.268;5.192;2023-05-21T02:28:52;101864.41;;;13.68;68.63
74627;BME280;63132;52.268;5.192;2023-05-21T02:31:18;101870.94;;;13.64;68.91
74627;BME280;63132;52.268;5.192;2023-05-21T02:33:43;101866.00;;;13.70;68.77
74627;BME280;63132;52.268;5.192;2023-05-21T02:36:08;101871.19;;;13.60;69.22
74627;BME280;63132;52.268;5.192;2023-05-21T02:38:40;101867.03;;;13.56;69.34
74627;BME280;63132;52.268;5.192;2023-05-21T02:41:09;101864.03;;;13.61;69.04
74627;BME280;63132;52.268;5.192;2023-05-21T02:43:35;101862.31;;;13.60;69.30
74627;BME280;63132;52.268;5.192;2023-05-21T02:46:01;101869.25;;;13.63;69.18
74627;BME280;63132;52.268;5.192;2023-05-21T02:48:26;101863.50;;;13.56;69.52
74627;BME280;63132;52.268;5.192;2023-05-21T02:50:51;101862.44;;;13.58;69.44
74627;BME280;63132;52.268;5.192;2023-05-21T02:53:16;101866.31;;;13.54;69.59
74627;BME280;63132;52.268;5.192;2023-05-21T02:55:42;101868.97;;;13.54;69.93
74627;BME280;63132;52.268;5.192;2023-05-21T02:58:08;101869.97;;;13.53;69.94
74627;BME280;63132;52.268;5.192;2023-05-21T03:00:33;101867.78;;;13.58;69.50
74627;BME280;63132;52.268;5.192;2023-05-21T03:02:59;101865.34;;;13.55;69.86
74627;BME280;63132;52.268;5.192;2023-05-21T03:05:24;101865.84;;;13.60;69.94
74627;BME280;63132;52.268;5.192;2023-05-21T03:07:49;101868.19;;;13.52;70.15
74627;BME280;63132;52.268;5.192;2023-05-21T03:10:15;101867.47;;;13.50;70.08
74627;BME280;63132;52.268;5.192;2023-05-21T03:12:40;101867.47;;;13.50;70.46
74627;BME280;63132;52.268;5.192;2023-05-21T03:15:06;101863.09;;;13.49;70.43
74627;BME280;63132;52.268;5.192;2023-05-21T03:17:31;101864.97;;;13.60;70.11
74627;BME280;63132;52.268;5.192;2023-05-21T03:19:56;101859.44;;;13.50;70.41
74627;BME280;63132;52.268;5.192;2023-05-21T03:22:22;101856.53;;;13.42;70.73
74627;BME280;63132;52.268;5.192;2023-05-21T03:24:47;101851.06;;;13.43;70.65
74627;BME280;63132;52.268;5.192;2023-05-21T03:27:13;101853.97;;;13.40;70.94
74627;BME280;63132;52.268;5.192;2023-05-21T03:29:38;101861.88;;;13.42;70.90
74627;BME280;63132;52.268;5.192;2023-05-21T03:32:04;101861.88;;;13.42;70.94
74627;BME280;63132;52.268;5.192;2023-05-21T03:34:30;101854.09;;;13.50;70.77
74627;BME280;63132;52.268;5.192;2023-05-21T03:36:58;101853.09;;;13.40;71.01
74627;BME280;63132;52.268;5.192;2023-05-21T03:39:24;101848.13;;;13.46;71.21
74627;BME280;63132;52.268;5.192;2023-05-21T03:41:49;101849.44;;;13.41;71.32
74627;BME280;63132;52.268;5.192;2023-05-21T03:44:15;101853.09;;;13.40;71.35
74627;BME280;63132;52.268;5.192;2023-05-21T03:46:40;101844.09;;;13.41;71.62
74627;BME280;63132;52.268;5.192;2023-05-21T03:49:06;101852.88;;;13.43;71.65
74627;BME280;63132;52.268;5.192;2023-05-21T03:51:31;101853.97;;;13.40;71.76
74627;BME280;63132;52.268;5.192;2023-05-21T03:53:57;101849.97;;;13.46;71.50
74627;BME280;63132;52.268;5.192;2023-05-21T03:56:23;101847.88;;;13.38;71.96
74627;BME280;63132;52.268;5.192;2023-05-21T03:58:48;101847.47;;;13.31;72.28
74627;BME280;63132;52.268;5.192;2023-05-21T04:01:13;101840.69;;;13.38;72.05
74627;BME280;63132;52.268;5.192;2023-05-21T04:03:38;101846.00;;;13.27;72.61
74627;BME280;63132;52.268;5.192;2023-05-21T04:06:04;101853.31;;;13.25;72.75
74627;BME280;63132;52.268;5.192;2023-05-21T04:08:29;101842.81;;;13.22;73.21
74627;BME280;63132;52.268;5.192;2023-05-21T04:10:55;101838.47;;;13.21;73.30
74627;BME280;63132;52.268;5.192;2023-05-21T04:13:21;101842.09;;;13.20;73.53
74627;BME280;63132;52.268;5.192;2023-05-21T04:15:46;101846.34;;;13.22;73.39
74627;BME280;63132;52.268;5.192;2023-05-21T04:18:13;101851.09;;;13.19;73.87
74627;BME280;63132;52.268;5.192;2023-05-21T04:20:40;101847.22;;;13.23;73.72
74627;BME280;63132;52.268;5.192;2023-05-21T04:23:05;101844.75;;;13.20;74.02
74627;BME280;63132;52.268;5.192;2023-05-21T04:25:31;101853.91;;;13.29;73.97
74627;BME280;63132;52.268;5.192;2023-05-21T04:27:56;101853.81;;;13.30;73.78
74627;BME280;63132;52.268;5.192;2023-05-21T04:30:21;101851.00;;;13.32;73.77
74627;BME280;63132;52.268;5.192;2023-05-21T04:32:48;101849.97;;;13.46;73.43
74627;BME280;63132;52.268;5.192;2023-05-21T04:35:13;101857.72;;;13.37;73.84
74627;BME280;63132;52.268;5.192;2023-05-21T04:37:41;101855.50;;;13.31;74.36
74627;BME280;63132;52.268;5.192;2023-05-21T04:40:12;101850.88;;;13.33;74.29
74627;BME280;63132;52.268;5.192;2023-05-21T04:42:45;101850.75;;;13.35;74.58
74627;BME280;63132;52.268;5.192;2023-05-21T04:45:12;101844.09;;;13.41;74.80
74627;BME280;63132;52.268;5.192;2023-05-21T04:47:38;101854.31;;;13.35;75.24
74627;BME280;63132;52.268;5.192;2023-05-21T04:50:03;101851.91;;;13.44;74.90
74627;BME280;63132;52.268;5.192;2023-05-21T04:52:29;101855.31;;;13.46;75.03
74627;BME280;63132;52.268;5.192;2023-05-21T04:54:55;101847.75;;;13.40;75.46
74627;BME280;63132;52.268;5.192;2023-05-21T04:57:21;101854.09;;;13.50;75.33
74627;BME280;63132;52.268;5.192;2023-05-21T04:59:48;101848.59;;;13.65;74.91
74627;BME280;63132;52.268;5.192;2023-05-21T05:02:13;101858.22;;;13.43;75.36
74627;BME280;63132;52.268;5.192;2023-05-21T05:04:39;101848.94;;;13.60;75.25
74627;BME280;63132;52.268;5.192;2023-05-21T05:07:04;101854.09;;;13.50;75.32
74627;BME280;63132;52.268;5.192;2023-05-21T05:09:35;101854.91;;;13.64;74.76
74627;BME280;63132;52.268;5.192;2023-05-21T05:12:01;101869.59;;;13.58;75.45
74627;BME280;63132;52.268;5.192;2023-05-21T05:14:26;101856.47;;;13.55;75.48
74627;BME280;63132;52.268;5.192;2023-05-21T05:16:51;101848.31;;;13.56;75.60
74627;BME280;63132;52.268;5.192;2023-05-21T05:19:18;101846.81;;;13.52;75.76
74627;BME280;63132;52.268;5.192;2023-05-21T05:21:44;101852.09;;;13.65;75.55
74627;BME280;63132;52.268;5.192;2023-05-21T05:24:09;101851.28;;;13.65;75.39
74627;BME280;63132;52.268;5.192;2023-05-21T05:26:34;101856.00;;;13.61;75.69
74627;BME280;63132;52.268;5.192;2023-05-21T05:29:00;101849.81;;;13.60;75.83
74627;BME280;63132;52.268;5.192;2023-05-21T05:31:25;101853.22;;;13.63;76.03
74627;BME280;63132;52.268;5.192;2023-05-21T05:33:51;101842.28;;;13.66;75.55
74627;BME280;63132;52.268;5.192;2023-05-21T05:36:16;101838.28;;;13.71;75.95
74627;BME280;63132;52.268;5.192;2023-05-21T05:38:41;101840.47;;;13.66;75.91
74627;BME280;63132;52.268;5.192;2023-05-21T05:41:06;101838.41;;;13.70;75.82
74627;BME280;63132;52.268;5.192;2023-05-21T05:43:32;101842.56;;;13.85;75.27
74627;BME280;63132;52.268;5.192;2023-05-21T05:45:57;101836.47;;;13.83;75.48
74627;BME280;63132;52.268;5.192;2023-05-21T05:48:22;101840.66;;;13.99;75.05
74627;BME280;63132;52.268;5.192;2023-05-21T05:50:48;101842.94;;;14.04;74.44
74627;BME280;63132;52.268;5.192;2023-05-21T05:53:13;101834.78;;;14.05;74.11
74627;BME280;63132;52.268;5.192;2023-05-21T05:55:38;101838.56;;;14.03;74.05
74627;BME280;63132;52.268;5.192;2023-05-21T05:58:04;101840.66;;;13.99;74.10
74627;BME280;63132;52.268;5.192;2023-05-21T06:00:30;101838.44;;;14.04;74.42
74627;BME280;63132;52.268;5.192;2023-05-21T06:02:55;101836.03;;;14.01;74.04
74627;BME280;63132;52.268;5.192;2023-05-21T06:05:21;101841.13;;;14.04;73.95
74627;BME280;63132;52.268;5.192;2023-05-21T06:07:46;101833.44;;;14.00;74.21
74627;BME280;63132;52.268;5.192;2023-05-21T06:10:11;101835.06;;;14.14;73.52
74627;BME280;63132;52.268;5.192;2023-05-21T06:12:37;101829.34;;;14.18;73.12
74627;BME280;63132;52.268;5.192;2023-05-21T06:15:03;101832.38;;;14.37;72.47
74627;BME280;63132;52.268;5.192;2023-05-21T06:17:29;101820.69;;;14.26;72.50
74627;BME280;63132;52.268;5.192;2023-05-21T06:19:55;101826.28;;;14.23;72.69
74627;BME280;63132;52.268;5.192;2023-05-21T06:22:20;101826.53;;;14.31;72.56
74627;BME280;63132;52.268;5.192;2023-05-21T06:24:45;101825.81;;;14.41;71.90
74627;BME280;63132;52.268;5.192;2023-05-21T06:27:11;101823.84;;;14.54;72.02
74627;BME280;63132;52.268;5.192;2023-05-21T06:29:36;101827.22;;;14.68;70.70
74627;BME280;63132;52.268;5.192;2023-05-21T06:32:02;101829.78;;;14.70;70.83
74627;BME280;63132;52.268;5.192;2023-05-21T06:34:27;101827.72;;;14.62;71.18
74627;BME280;63132;52.268;5.192;2023-05-21T06:36:55;101828.56;;;14.85;70.91
74627;BME280;63132;52.268;5.192;2023-05-21T06:39:20;101833.19;;;14.83;70.59
74627;BME280;63132;52.268;5.192;2023-05-21T06:41:46;101833.19;;;15.16;69.81
74627;BME280;63132;52.268;5.192;2023-05-21T06:44:11;101830.09;;;14.99;69.59
74627;BME280;63132;52.268;5.192;2023-05-21T06:46:37;101835.44;;;14.99;69.27
74627;BME280;63132;52.268;5.192;2023-05-21T06:49:02;101836.13;;;15.13;69.40
74627;BME280;63132;52.268;5.192;2023-05-21T06:51:27;101828.19;;;15.23;69.05
74627;BME280;63132;52.268;5.192;2023-05-21T06:53:53;101823.81;;;15.65;67.53
74627;BME280;63132;52.268;5.192;2023-05-21T06:56:18;101823.81;;;15.43;68.09
74627;BME280;63132;52.268;5.192;2023-05-21T06:58:44;101825.97;;;15.71;67.38
74627;BME280;63132;52.268;5.192;2023-05-21T07:01:09;101823.66;;;16.09;65.82
74627;BME280;63132;52.268;5.192;2023-05-21T07:03:36;101822.88;;;15.76;66.76
74627;BME280;63132;52.268;5.192;2023-05-21T07:06:01;101830.78;;;15.98;66.02
74627;BME280;63132;52.268;5.192;2023-05-21T07:08:27;101827.94;;;16.00;65.71
74627;BME280;63132;52.268;5.192;2023-05-21T07:10:52;101829.75;;;16.21;64.76
74627;BME280;63132;52.268;5.192;2023-05-21T07:13:18;101822.50;;;16.43;64.47
74627;BME280;63132;52.268;5.192;2023-05-21T07:15:43;101826.66;;;16.57;64.22
74627;BME280;63132;52.268;5.192;2023-05-21T07:18:09;101824.44;;;16.92;64.00
74627;BME280;63132;52.268;5.192;2023-05-21T07:20:34;101824.28;;;16.93;62.78
74627;BME280;63132;52.268;5.192;2023-05-21T07:22:59;101817.19;;;16.73;63.51
74627;BME280;63132;52.268;5.192;2023-05-21T07:25:25;101823.72;;;16.80;63.56
74627;BME280;63132;52.268;5.192;2023-05-21T07:27:50;101822.13;;;16.67;64.22
74627;BME280;63132;52.268;5.192;2023-05-21T07:30:15;101831.09;;;16.98;62.79
74627;BME280;63132;52.268;5.192;2023-05-21T07:32:41;101835.31;;;16.90;62.72
74627;BME280;63132;52.268;5.192;2023-05-21T07:35:06;101829.34;;;16.57;63.66
74627;BME280;63132;52.268;5.192;2023-05-21T07:37:32;101832.31;;;16.64;64.12
74627;BME280;63132;52.268;5.192;2023-05-21T07:39:57;101831.06;;;16.78;63.28
74627;BME280;63132;52.268;5.192;2023-05-21T07:42:24;101836.22;;;16.50;63.85
74627;BME280;63132;52.268;5.192;2023-05-21T07:44:49;101822.56;;;16.63;63.76
74627;BME280;63132;52.268;5.192;2023-05-21T07:47:14;101829.44;;;16.45;64.15
74627;BME280;63132;52.268;5.192;2023-05-21T07:49:40;101821.66;;;16.42;63.45
74627;BME280;63132;52.268;5.192;2023-05-21T07:52:06;101820.59;;;16.75;63.30
74627;BME280;63132;52.268;5.192;2023-05-21T07:54:31;101817.50;;;17.09;62.35
74627;BME280;63132;52.268;5.192;2023-05-21T07:56:56;101821.75;;;17.42;61.04
74627;BME280;63132;52.268;5.192;2023-05-21T07:59:23;101815.97;;;17.46;60.87
74627;BME280;63132;52.268;5.192;2023-05-21T08:01:49;101808.59;;;17.58;60.68
74627;BME280;63132;52.268;5.192;2023-05-21T08:04:14;101816.22;;;18.11;59.40
74627;BME280;63132;52.268;5.192;2023-05-21T08:06:39;101806.88;;;18.05;58.54
74627;BME280;63132;52.268;5.192;2023-05-21T08:09:05;101808.06;;;17.93;58.76
74627;BME280;63132;52.268;5.192;2023-05-21T08:11:30;101806.31;;;18.40;57.27
74627;BME280;63132;52.268;5.192;2023-05-21T08:13:56;101810.97;;;18.48;57.97
74627;BME280;63132;52.268;5.192;2023-05-21T08:16:22;101812.25;;;18.43;57.13
74627;BME280;63132;52.268;5.192;2023-05-21T08:18:48;101805.66;;;18.28;57.69
74627;BME280;63132;52.268;5.192;2023-05-21T08:21:13;101821.47;;;18.69;56.71
74627;BME280;63132;52.268;5.192;2023-05-21T08:23:39;101804.03;;;18.17;56.84
74627;BME280;63132;52.268;5.192;2023-05-21T08:26:04;101812.25;;;18.15;57.37
74627;BME280;63132;52.268;5.192;2023-05-21T08:28:31;101814.06;;;17.77;58.63
74627;BME280;63132;52.268;5.192;2023-05-21T08:30:56;101806.41;;;18.20;57.66
74627;BME280;63132;52.268;5.192;2023-05-21T08:33:22;101817.25;;;18.00;58.37
74627;BME280;63132;52.268;5.192;2023-05-21T08:35:47;101811.50;;;17.85;58.61
74627;BME280;63132;52.268;5.192;2023-05-21T08:38:13;101807.84;;;17.66;59.22
74627;BME280;63132;52.268;5.192;2023-05-21T08:40:38;101806.47;;;17.62;58.96
74627;BME280;63132;52.268;5.192;2023-05-21T08:43:05;101808.47;;;17.98;58.79
74627;BME280;63132;52.268;5.192;2023-05-21T08:45:33;101817.44;;;17.89;58.62
74627;BME280;63132;52.268;5.192;2023-05-21T08:48:03;101812.44;;;17.94;59.08
74627;BME280;63132;52.268;5.192;2023-05-21T08:50:30;101804.31;;;17.75;59.28
74627;BME280;63132;52.268;5.192;2023-05-21T08:52:56;101807.81;;;17.76;59.52
74627;BME280;63132;52.268;5.192;2023-05-21T08:55:23;101817.13;;;17.92;59.48
74627;BME280;63132;52.268;5.192;2023-05-21T08:57:49;101811.19;;;17.88;59.63
74627;BME280;63132;52.268;5.192;2023-05-21T09:00:15;101809.25;;;17.70;60.67
74627;BME280;63132;52.268;5.192;2023-05-21T09:02:40;101810.44;;;17.48;61.93
74627;BME280;63132;52.268;5.192;2023-05-21T09:05:08;101802.50;;;17.56;61.89
74627;BME280;63132;52.268;5.192;2023-05-21T09:07:39;101801.09;;;17.42;62.66
74627;BME280;63132;52.268;5.192;2023-05-21T09:10:10;101803.66;;;17.34;63.28
74627;BME280;63132;52.268;5.192;2023-05-21T09:12:36;101806.53;;;17.12;63.94
74627;BME280;63132;52.268;5.192;2023-05-21T09:15:02;101812.56;;;17.24;63.21
74627;BME280;63132;52.268;5.192;2023-05-21T09:17:28;101801.38;;;17.09;63.54
74627;BME280;63132;52.268;5.192;2023-05-21T09:20:10;101808.63;;;17.38;62.92
74627;BME280;63132;52.268;5.192;2023-05-21T09:22:46;101810.84;;;17.03;63.36
74627;BME280;63132;52.268;5.192;2023-05-21T09:25:15;101805.94;;;17.09;64.32
74627;BME280;63132;52.268;5.192;2023-05-21T09:27:41;101810.34;;;17.20;63.98
74627;BME280;63132;52.268;5.192;2023-05-21T09:30:11;101811.97;;;17.11;63.91
74627;BME280;63132;52.268;5.192;2023-05-21T09:32:38;101807.06;;;17.36;63.11
74627;BME280;63132;52.268;5.192;2023-05-21T09:35:13;101799.69;;;17.28;62.71
74627;BME280;63132;52.268;5.192;2023-05-21T09:37:43;101804.97;;;17.20;63.25
74627;BME280;63132;52.268;5.192;2023-05-21T09:42:40;101804.19;;;16.98;63.68
74627;BME280;63132;52.268;5.192;2023-05-21T09:45:07;101797.16;;;17.26;63.87
74627;BME280;63132;52.268;5.192;2023-05-21T09:47:33;101801.72;;;17.26;63.21
74627;BME280;63132;52.268;5.192;2023-05-21T09:49:59;101804.97;;;17.20;63.20
74627;BME280;63132;52.268;5.192;2023-05-21T09:52:26;101798.81;;;16.98;63.79
74627;BME280;63132;52.268;5.192;2023-05-21T09:54:52;101786.41;;;16.97;63.75
74627;BME280;63132;52.268;5.192;2023-05-21T09:57:24;101783.97;;;17.43;63.66
74627;BME280;63132;52.268;5.192;2023-05-21T09:59:50;101787.97;;;17.29;63.35
74627;BME280;63132;52.268;5.192;2023-05-21T10:02:20;101780.19;;;17.26;63.74
74627;BME280;63132;52.268;5.192;2023-05-21T10:04:47;101779.84;;;17.49;63.93
74627;BME280;63132;52.268;5.192;2023-05-21T10:07:20;101786.94;;;17.50;62.38
74627;BME280;63132;52.268;5.192;2023-05-21T10:09:50;101790.34;;;17.22;63.54
74627;BME280;63132;52.268;5.192;2023-05-21T10:12:17;101772.63;;;17.49;62.75
74627;BME280;63132;52.268;5.192;2023-05-21T10:14:46;101775.56;;;17.66;62.51
74627;BME280;63132;52.268;5.192;2023-05-21T10:17:15;101769.84;;;17.31;63.40
74627;BME280;63132;52.268;5.192;2023-05-21T10:19:41;101774.19;;;17.52;62.80
74627;BME280;63132;52.268;5.192;2023-05-21T10:22:08;101767.25;;;17.49;62.30
74627;BME280;63132;52.268;5.192;2023-05-21T10:24:34;101781.16;;;17.25;63.00
74627;BME280;63132;52.268;5.192;2023-05-21T10:27:01;101771.78;;;17.49;62.84
74627;BME280;63132;52.268;5.192;2023-05-21T10:29:29;101765.38;;;17.70;61.90
74627;BME280;63132;52.268;5.192;2023-05-21T10:31:56;101767.63;;;17.65;61.73
74627;BME280;63132;52.268;5.192;2023-05-21T10:34:23;101767.34;;;17.68;62.37
74627;BME280;63132;52.268;5.192;2023-05-21T10:36:49;101757.41;;;18.06;61.41
74627;BME280;63132;52.268;5.192;2023-05-21T10:39:17;101782.88;;;18.22;60.23
74627;BME280;63132;52.268;5.192;2023-05-21T10:56:21;101749.03;;;18.19;60.85
74627;BME280;63132;52.268;5.192;2023-05-21T10:59:13;101758.75;;;18.30;60.51
74627;BME280;63132;52.268;5.192;2023-05-21T11:01:42;101754.22;;;18.31;60.83
74627;BME280;63132;52.268;5.192;2023-05-21T11:04:10;101744.19;;;18.23;60.87
74627;BME280;63132;52.268;5.192;2023-05-21T11:06:36;101742.59;;;18.30;61.09
74627;BME280;63132;52.268;5.192;2023-05-21T11:09:12;101760.44;;;18.31;60.70
74627;BME280;63132;52.268;5.192;2023-05-21T11:11:43;101750.88;;;18.09;61.14
74627;BME280;63132;52.268;5.192;2023-05-21T11:14:26;101736.19;;;18.03;61.21
74627;BME280;63132;52.268;5.192;2023-05-21T11:16:52;101737.81;;;18.14;61.36
74627;BME280;63132;52.268;5.192;2023-05-21T11:19:17;101739.78;;;18.22;61.09
74627;BME280;63132;52.268;5.192;2023-05-21T11:21:49;101753.34;;;18.02;60.99
74627;BME280;63132;52.268;5.192;2023-05-21T11:24:19;101741.94;;;18.18;61.16
74627;BME280;63132;52.268;5.192;2023-05-21T11:29:13;101740.81;;;18.21;60.47
74627;BME280;63132;52.268;5.192;2023-05-21T11:31:44;101736.03;;;18.05;60.96
74627;BME280;63132;52.268;5.192;2023-05-21T11:34:13;101728.16;;;18.21;60.14
74627;BME280;63132;52.268;5.192;2023-05-21T11:36:40;101735.59;;;18.38;59.98
74627;BME280;63132;52.268;5.192;2023-05-21T11:39:09;101724.44;;;18.04;60.22
74627;BME280;63132;52.268;5.192;2023-05-21T11:41:55;101719.28;;;18.11;60.53
74627;BME280;63132;52.268;5.192;2023-05-21T11:44:40;101728.72;;;18.25;60.02
74627;BME280;63132;52.268;5.192;2023-05-21T11:47:10;101721.53;;;18.16;60.85
74627;BME280;63132;52.268;5.192;2023-05-21T11:49:36;101721.03;;;18.49;60.12
74627;BME280;63132;52.268;5.192;2023-05-21T11:52:03;101719.97;;;18.13;60.74
74627;BME280;63132;52.268;5.192;2023-05-21T11:54:30;101713.13;;;18.47;60.58
74627;BME280;63132;52.268;5.192;2023-05-21T11:57:02;101719.91;;;18.51;59.74
74627;BME280;63132;52.268;5.192;2023-05-21T11:59:30;101710.72;;;18.62;59.77
74627;BME280;63132;52.268;5.192;2023-05-21T12:01:57;101721.19;;;18.47;59.92
74627;BME280;63132;52.268;5.192;2023-05-21T12:04:23;101697.13;;;18.45;60.00
74627;BME280;63132;52.268;5.192;2023-05-21T12:06:48;101702.13;;;18.40;60.57
74627;BME280;63132;52.268;5.192;2023-05-21T12:09:14;101691.03;;;18.43;60.65
74627;BME280;63132;52.268;5.192;2023-05-21T12:11:40;101717.53;;;18.48;60.22
74627;BME280;63132;52.268;5.192;2023-05-21T12:14:09;101693.41;;;18.65;60.78
74627;BME280;63132;52.268;5.192;2023-05-21T12:16:35;101703.75;;;18.51;60.11
74627;BME280;63132;52.268;5.192;2023-05-21T12:19:02;101696.72;;;18.12;60.27
74627;BME280;63132;52.268;5.192;2023-05-21T12:21:28;101690.72;;;18.28;59.87
74627;BME280;63132;52.268;5.192;2023-05-21T12:23:54;101698.00;;;18.18;60.11
74627;BME280;63132;52.268;5.192;2023-05-21T12:26:21;101693.09;;;18.31;60.18
74627;BME280;63132;52.268;5.192;2023-05-21T12:28:50;101690.25;;;18.33;60.65
74627;BME280;63132;52.268;5.192;2023-05-21T12:31:15;101692.03;;;18.42;60.21
74627;BME280;63132;52.268;5.192;2023-05-21T12:33:44;101683.84;;;18.16;60.67
74627;BME280;63132;52.268;5.192;2023-05-21T12:36:27;101686.88;;;18.31;61.06
74627;BME280;63132;52.268;5.192;2023-05-21T12:38:54;101680.56;;;18.40;60.96
74627;BME280;63132;52.268;5.192;2023-05-21T12:41:20;101695.63;;;18.33;61.33
74627;BME280;63132;52.268;5.192;2023-05-21T12:43:46;101681.78;;;18.28;61.97
74627;BME280;63132;52.268;5.192;2023-05-21T12:46:12;101686.31;;;18.27;61.90
74627;BME280;63132;52.268;5.192;2023-05-21T12:48:39;101691.50;;;18.10;62.11
74627;BME280;63132;52.268;5.192;2023-05-21T12:51:07;101694.00;;;18.22;62.01
74627;BME280;63132;52.268;5.192;2023-05-21T12:53:36;101674.19;;;18.23;62.25
74627;BME280;63132;52.268;5.192;2023-05-21T12:56:12;101672.41;;;18.50;61.65
74627;BME280;63132;52.268;5.192;2023-05-21T12:58:39;101682.19;;;18.51;61.07
74627;BME280;63132;52.268;5.192;2023-05-21T13:01:09;101684.88;;;18.51;61.04
74627;BME280;63132;52.268;5.192;2023-05-21T13:03:36;101684.31;;;18.29;61.45
74627;BME280;63132;52.268;5.192;2023-05-21T13:06:01;101684.31;;;18.29;61.92
74627;BME280;63132;52.268;5.192;2023-05-21T13:08:27;101674.72;;;18.27;61.69
74627;BME280;63132;52.268;5.192;2023-05-21T13:10:53;101690.66;;;18.56;61.26